createdAt,value
2018-06-25T00:00:39.658Z,0.00
2018-06-25T00:01:39.661Z,0.00
2018-06-25T00:02:39.565Z,0.00
2018-06-25T00:03:39.513Z,0.00
2018-06-25T00:04:39.471Z,0.00
2018-06-25T00:05:39.421Z,0.00
2018-06-25T00:06:39.405Z,0.00
2018-06-25T00:07:39.331Z,0.00
2018-06-25T00:08:39.280Z,0.00
2018-06-25T00:09:39.273Z,0.00
2018-06-25T00:10:39.186Z,0.00
2018-06-25T00:11:39.133Z,0.00
2018-06-25T00:12:39.121Z,0.00
2018-06-25T00:13:39.040Z,0.00
2018-06-25T00:14:38.990Z,0.00
2018-06-25T00:15:38.943Z,0.00
2018-06-25T00:16:38.897Z,0.00
2018-06-25T00:17:38.890Z,0.00
2018-06-25T00:18:38.802Z,0.00
2018-06-25T00:19:38.755Z,0.00
2018-06-25T00:20:38.739Z,0.00
2018-06-25T00:21:38.659Z,0.00
2018-06-25T00:22:38.622Z,0.00
2018-06-25T00:23:38.562Z,0.00
2018-06-25T00:24:38.551Z,0.00
2018-06-25T00:25:38.482Z,0.00
2018-06-25T00:26:38.426Z,0.00
2018-06-25T00:27:38.408Z,0.00
2018-06-25T00:28:38.325Z,0.00
2018-06-25T00:29:38.277Z,0.00
2018-06-25T00:30:38.233Z,0.00
2018-06-25T00:31:38.183Z,0.00
2018-06-25T00:32:38.166Z,0.00
2018-06-25T00:33:38.091Z,0.00
2018-06-25T00:34:38.044Z,0.00
2018-06-25T00:35:37.995Z,0.00
2018-06-25T00:36:37.974Z,0.00
2018-06-25T00:37:37.897Z,0.00
2018-06-25T00:38:37.850Z,0.00
2018-06-25T00:39:37.833Z,0.00
2018-06-25T00:40:37.753Z,0.00
2018-06-25T00:41:37.755Z,0.00
2018-06-25T00:42:37.660Z,0.00
2018-06-25T00:43:37.611Z,0.00
2018-06-25T00:44:37.560Z,0.00
2018-06-25T00:45:37.515Z,0.00
2018-06-25T00:46:37.509Z,0.00
2018-06-25T00:47:37.421Z,0.00
2018-06-25T00:48:37.368Z,0.00
2018-06-25T00:49:37.323Z,0.00
2018-06-25T00:50:37.280Z,0.00
2018-06-25T00:51:37.261Z,0.00
2018-06-25T00:52:37.181Z,0.00
2018-06-25T00:53:37.138Z,0.00
2018-06-25T00:54:37.084Z,0.00
2018-06-25T00:55:37.086Z,0.00
2018-06-25T00:56:36.988Z,0.00
2018-06-25T00:57:36.941Z,0.00
2018-06-25T00:58:36.894Z,0.00
2018-06-25T00:59:36.844Z,0.00
2018-06-25T01:00:36.832Z,0.00
2018-06-25T01:01:36.753Z,0.00
2018-06-25T01:02:36.700Z,0.00
2018-06-25T01:03:36.652Z,0.00
2018-06-25T01:04:36.610Z,0.00
2018-06-25T01:05:36.591Z,0.00
2018-06-25T01:06:36.544Z,0.00
2018-06-25T01:07:36.493Z,0.00
2018-06-25T01:08:36.417Z,0.00
2018-06-25T01:09:36.367Z,0.00
2018-06-25T01:10:36.318Z,0.00
2018-06-25T01:11:36.315Z,0.00
2018-06-25T01:12:36.225Z,0.00
2018-06-25T01:13:36.181Z,0.00
2018-06-25T01:14:36.132Z,0.00
2018-06-25T01:15:36.093Z,0.00
2018-06-25T01:16:36.066Z,0.00
2018-06-25T01:17:35.990Z,0.00
2018-06-25T01:18:35.935Z,0.00
2018-06-25T01:19:35.889Z,0.00
2018-06-25T01:20:35.875Z,0.00
2018-06-25T01:21:35.794Z,0.00
2018-06-25T01:22:35.771Z,0.00
2018-06-25T01:23:35.700Z,0.00
2018-06-25T01:24:35.652Z,0.00
2018-06-25T01:25:35.603Z,0.00
2018-06-25T01:26:35.555Z,0.00
2018-06-25T01:27:35.573Z,0.00
2018-06-25T01:28:35.463Z,0.00
2018-06-25T01:29:35.412Z,0.00
2018-06-25T01:30:35.363Z,0.00
2018-06-25T01:31:35.316Z,0.00
2018-06-25T01:32:35.308Z,0.00
2018-06-25T01:33:35.220Z,0.00
2018-06-25T01:34:35.174Z,0.00
2018-06-25T01:35:35.125Z,0.00
2018-06-25T01:36:35.074Z,0.00
2018-06-25T01:37:35.061Z,0.00
2018-06-25T01:38:34.981Z,0.00
2018-06-25T01:39:34.933Z,0.00
2018-06-25T01:40:34.884Z,0.00
2018-06-25T01:41:34.876Z,0.00
2018-06-25T01:42:34.789Z,0.00
2018-06-25T01:43:34.743Z,0.00
2018-06-25T01:44:34.693Z,0.00
2018-06-25T01:45:34.645Z,0.00
2018-06-25T01:46:34.634Z,0.00
2018-06-25T01:47:34.550Z,0.00
2018-06-25T01:48:34.501Z,0.00
2018-06-25T01:49:34.478Z,0.00
2018-06-25T01:50:34.405Z,0.00
2018-06-25T01:51:34.358Z,0.00
2018-06-25T01:52:34.309Z,0.00
2018-06-25T01:53:34.262Z,0.00
2018-06-25T01:54:34.240Z,0.00
2018-06-25T01:55:34.167Z,0.00
2018-06-25T01:56:34.117Z,0.00
2018-06-25T01:57:34.073Z,0.00
2018-06-25T01:58:34.022Z,0.00
2018-06-25T01:59:34.006Z,0.00
2018-06-25T02:00:33.927Z,0.00
2018-06-25T02:01:33.878Z,0.00
2018-06-25T02:02:33.829Z,0.00
2018-06-25T02:03:33.782Z,0.00
2018-06-25T02:04:33.773Z,0.00
2018-06-25T02:05:33.689Z,0.00
2018-06-25T02:06:33.639Z,0.00
2018-06-25T02:07:33.591Z,0.00
2018-06-25T02:08:33.548Z,0.00
2018-06-25T02:09:33.538Z,0.00
2018-06-25T02:10:33.446Z,0.00
2018-06-25T02:11:33.399Z,0.00
2018-06-25T02:12:33.352Z,0.00
2018-06-25T02:13:33.304Z,0.00
2018-06-25T02:14:33.295Z,0.00
2018-06-25T02:15:33.205Z,0.00
2018-06-25T02:16:33.164Z,0.00
2018-06-25T02:17:33.113Z,0.00
2018-06-25T02:18:33.063Z,0.00
2018-06-25T02:19:33.053Z,0.00
2018-06-25T02:20:32.969Z,0.00
2018-06-25T02:21:32.924Z,0.00
2018-06-25T02:22:32.870Z,0.00
2018-06-25T02:23:32.821Z,0.00
2018-06-25T02:24:32.819Z,0.00
2018-06-25T02:25:32.732Z,0.00
2018-06-25T02:26:32.678Z,0.00
2018-06-25T02:27:32.630Z,0.00
2018-06-25T02:28:32.586Z,0.00
2018-06-25T02:29:32.587Z,0.00
2018-06-25T02:30:32.487Z,0.00
2018-06-25T02:31:32.440Z,0.00
2018-06-25T02:32:32.393Z,0.00
2018-06-25T02:33:32.342Z,0.00
2018-06-25T02:34:32.340Z,0.00
2018-06-25T02:35:32.251Z,0.00
2018-06-25T02:36:32.202Z,0.00
2018-06-25T02:37:32.156Z,0.00
2018-06-25T02:38:32.154Z,0.00
2018-06-25T02:39:32.094Z,0.00
2018-06-25T02:40:32.007Z,0.00
2018-06-25T02:41:31.961Z,0.00
2018-06-25T02:42:31.926Z,0.00
2018-06-25T02:43:31.863Z,0.00
2018-06-25T02:44:31.859Z,0.00
2018-06-25T02:45:31.765Z,0.00
2018-06-25T02:46:31.719Z,0.00
2018-06-25T02:47:31.675Z,4.00
2018-06-25T02:48:31.624Z,4.00
2018-06-25T02:49:31.611Z,0.00
2018-06-25T02:50:31.527Z,0.00
2018-06-25T02:51:31.478Z,0.00
2018-06-25T02:52:31.442Z,4.00
2018-06-25T02:53:31.413Z,0.00
2018-06-25T02:54:31.335Z,4.00
2018-06-25T02:55:31.290Z,4.00
2018-06-25T02:56:31.278Z,4.00
2018-06-25T02:57:31.188Z,4.00
2018-06-25T02:58:31.143Z,4.00
2018-06-25T02:59:31.102Z,4.00
2018-06-25T03:00:31.045Z,4.00
2018-06-25T03:01:31.046Z,4.00
2018-06-25T03:02:30.950Z,4.00
2018-06-25T03:03:30.899Z,8.00
2018-06-25T03:04:30.863Z,4.00
2018-06-25T03:05:30.806Z,8.00
2018-06-25T03:06:30.796Z,8.00
2018-06-25T03:07:30.709Z,8.00
2018-06-25T03:08:30.669Z,12.00
2018-06-25T03:09:30.615Z,12.00
2018-06-25T03:10:30.564Z,12.00
2018-06-25T03:11:30.551Z,16.00
2018-06-25T03:12:30.471Z,12.00
2018-06-25T03:13:30.426Z,16.00
2018-06-25T03:14:30.378Z,16.00
2018-06-25T03:15:30.324Z,16.00
2018-06-25T03:16:30.310Z,20.00
2018-06-25T03:17:30.270Z,20.00
2018-06-25T03:18:30.182Z,20.00
2018-06-25T03:19:30.134Z,24.00
2018-06-25T03:20:30.083Z,20.00
2018-06-25T03:21:30.036Z,24.00
2018-06-25T03:22:30.023Z,24.00
2018-06-25T03:23:29.936Z,20.00
2018-06-25T03:24:29.895Z,20.00
2018-06-25T03:25:29.845Z,16.00
2018-06-25T03:26:29.793Z,16.00
2018-06-25T03:27:29.875Z,20.00
2018-06-25T03:28:29.700Z,24.00
2018-06-25T03:29:29.654Z,28.00
2018-06-25T03:30:29.602Z,28.00
2018-06-25T03:31:29.554Z,28.00
2018-06-25T03:32:29.537Z,28.00
2018-06-25T03:33:29.491Z,32.00
2018-06-25T03:34:29.422Z,36.00
2018-06-25T03:35:29.361Z,36.00
2018-06-25T03:36:29.312Z,32.00
2018-06-25T03:37:29.269Z,28.00
2018-06-25T03:38:29.251Z,32.00
2018-06-25T03:39:29.199Z,32.00
2018-06-25T03:40:29.119Z,36.00
2018-06-25T03:41:29.073Z,40.00
2018-06-25T03:42:29.026Z,44.00
2018-06-25T03:43:29.023Z,48.00
2018-06-25T03:44:28.928Z,56.00
2018-06-25T03:45:28.879Z,56.00
2018-06-25T03:46:28.835Z,56.00
2018-06-25T03:47:28.786Z,56.00
2018-06-25T03:48:28.769Z,52.00
2018-06-25T03:49:28.738Z,52.00
2018-06-25T03:50:28.639Z,56.00
2018-06-25T03:51:28.593Z,60.00
2018-06-25T03:52:28.542Z,64.00
2018-06-25T03:53:28.494Z,64.00
2018-06-25T03:54:28.481Z,64.00
2018-06-25T03:55:28.427Z,64.00
2018-06-25T03:56:28.350Z,60.00
2018-06-25T03:57:28.300Z,64.00
2018-06-25T03:58:28.256Z,72.00
2018-06-25T03:59:28.208Z,72.00
2018-06-25T04:00:28.198Z,68.00
2018-06-25T04:01:28.112Z,68.00
2018-06-25T04:02:28.069Z,64.00
2018-06-25T04:03:28.012Z,76.00
2018-06-25T04:04:27.971Z,92.00
2018-06-25T04:05:27.958Z,96.00
2018-06-25T04:06:27.872Z,96.00
2018-06-25T04:07:27.824Z,100.00
2018-06-25T04:08:27.772Z,116.00
2018-06-25T04:09:27.724Z,128.00
2018-06-25T04:10:27.708Z,140.00
2018-06-25T04:11:27.659Z,156.00
2018-06-25T04:12:27.581Z,184.00
2018-06-25T04:13:27.534Z,208.00
2018-06-25T04:14:27.485Z,224.00
2018-06-25T04:15:27.434Z,232.00
2018-06-25T04:16:27.421Z,240.00
2018-06-25T04:17:27.340Z,228.00
2018-06-25T04:18:27.327Z,232.00
2018-06-25T04:19:27.244Z,236.00
2018-06-25T04:20:27.196Z,228.00
2018-06-25T04:21:27.188Z,240.00
2018-06-25T04:22:27.098Z,236.00
2018-06-25T04:23:27.055Z,232.00
2018-06-25T04:24:27.004Z,228.00
2018-06-25T04:25:26.960Z,232.00
2018-06-25T04:26:26.938Z,232.00
2018-06-25T04:27:26.858Z,228.00
2018-06-25T04:28:26.810Z,232.00
2018-06-25T04:29:26.762Z,248.00
2018-06-25T04:30:26.714Z,252.00
2018-06-25T04:31:26.699Z,252.00
2018-06-25T04:32:26.615Z,264.00
2018-06-25T04:33:26.571Z,288.00
2018-06-25T04:34:26.552Z,300.00
2018-06-25T04:35:26.477Z,316.00
2018-06-25T04:36:26.428Z,328.00
2018-06-25T04:37:26.376Z,316.00
2018-06-25T04:38:26.332Z,300.00
2018-06-25T04:39:26.328Z,296.00
2018-06-25T04:40:26.236Z,308.00
2018-06-25T04:41:26.181Z,328.00
2018-06-25T04:42:26.134Z,316.00
2018-06-25T04:43:26.090Z,312.00
2018-06-25T04:44:26.078Z,308.00
2018-06-25T04:45:25.988Z,304.00
2018-06-25T04:46:25.943Z,308.00
2018-06-25T04:47:25.893Z,312.00
2018-06-25T04:48:25.846Z,308.00
2018-06-25T04:49:25.833Z,296.00
2018-06-25T04:50:25.773Z,284.00
2018-06-25T04:51:25.701Z,276.00
2018-06-25T04:52:25.651Z,288.00
2018-06-25T04:53:25.604Z,288.00
2018-06-25T04:54:25.591Z,288.00
2018-06-25T04:55:25.508Z,292.00
2018-06-25T04:56:25.491Z,308.00
2018-06-25T04:57:25.413Z,340.00
2018-06-25T04:58:25.366Z,376.00
2018-06-25T04:59:25.317Z,400.00
2018-06-25T05:00:25.268Z,432.00
2018-06-25T05:01:25.264Z,476.00
2018-06-25T05:02:25.174Z,496.00
2018-06-25T05:03:25.127Z,520.00
2018-06-25T05:04:25.077Z,524.00
2018-06-25T05:05:25.030Z,516.00
2018-06-25T05:06:25.030Z,500.00
2018-06-25T05:07:24.936Z,456.00
2018-06-25T05:08:24.885Z,436.00
2018-06-25T05:09:24.839Z,468.00
2018-06-25T05:10:24.789Z,500.00
2018-06-25T05:11:24.869Z,492.00
2018-06-25T05:12:24.694Z,448.00
2018-06-25T05:13:24.645Z,412.00
2018-06-25T05:14:24.594Z,408.00
2018-06-25T05:15:24.551Z,404.00
2018-06-25T05:16:24.534Z,404.00
2018-06-25T05:17:24.452Z,416.00
2018-06-25T05:18:24.441Z,428.00
2018-06-25T05:19:24.353Z,436.00
2018-06-25T05:20:24.340Z,432.00
2018-06-25T05:21:24.267Z,440.00
2018-06-25T05:22:24.215Z,460.00
2018-06-25T05:23:24.203Z,464.00
2018-06-25T05:24:24.117Z,464.00
2018-06-25T05:25:24.071Z,484.00
2018-06-25T05:26:24.025Z,516.00
2018-06-25T05:27:23.971Z,548.00
2018-06-25T05:28:23.966Z,544.00
2018-06-25T05:29:23.877Z,556.00
2018-06-25T05:30:23.833Z,560.00
2018-06-25T05:31:23.781Z,640.00
2018-06-25T05:32:23.736Z,724.00
2018-06-25T05:33:23.771Z,772.00
2018-06-25T05:34:23.665Z,736.00
2018-06-25T05:35:23.585Z,672.00
2018-06-25T05:36:23.544Z,624.00
2018-06-25T05:37:23.493Z,600.00
2018-06-25T05:38:23.475Z,644.00
2018-06-25T05:39:23.427Z,672.00
2018-06-25T05:40:23.354Z,676.00
2018-06-25T05:41:23.309Z,664.00
2018-06-25T05:42:23.252Z,716.00
2018-06-25T05:43:23.207Z,696.00
2018-06-25T05:44:23.196Z,712.00
2018-06-25T05:45:23.110Z,752.00
2018-06-25T05:46:23.064Z,788.00
2018-06-25T05:47:23.017Z,804.00
2018-06-25T05:48:22.970Z,808.00
2018-06-25T05:49:22.946Z,776.00
2018-06-25T05:50:22.870Z,800.00
2018-06-25T05:51:22.823Z,820.00
2018-06-25T05:52:22.780Z,820.00
2018-06-25T05:53:22.769Z,820.00
2018-06-25T05:54:22.681Z,836.00
2018-06-25T05:55:22.640Z,880.00
2018-06-25T05:56:22.591Z,960.00
2018-06-25T05:57:22.537Z,1036.00
2018-06-25T05:58:22.519Z,1084.00
2018-06-25T05:59:22.444Z,1132.00
2018-06-25T06:00:22.424Z,1208.00
2018-06-25T06:01:22.345Z,1240.00
2018-06-25T06:02:22.300Z,1184.00
2018-06-25T06:03:22.253Z,1132.00
2018-06-25T06:04:22.235Z,1136.00
2018-06-25T06:05:22.164Z,1192.00
2018-06-25T06:06:22.111Z,1232.00
2018-06-25T06:07:22.062Z,1240.00
2018-06-25T06:08:22.272Z,1372.00
2018-06-25T06:09:22.010Z,1488.00
2018-06-25T06:10:21.948Z,1540.00
2018-06-25T06:11:21.871Z,1568.00
2018-06-25T06:12:21.858Z,1496.00
2018-06-25T06:13:21.778Z,1448.00
2018-06-25T06:14:21.730Z,1420.00
2018-06-25T06:15:21.723Z,1408.00
2018-06-25T06:16:21.631Z,1404.00
2018-06-25T06:17:21.613Z,1432.00
2018-06-25T06:18:21.537Z,1468.00
2018-06-25T06:19:21.491Z,1516.00
2018-06-25T06:20:21.489Z,1560.00
2018-06-25T06:21:21.399Z,1620.00
2018-06-25T06:22:21.350Z,1796.00
2018-06-25T06:23:21.303Z,1896.00
2018-06-25T06:24:21.304Z,2176.00
2018-06-25T06:25:21.240Z,2240.00
2018-06-25T06:26:21.214Z,2392.00
2018-06-25T06:27:21.113Z,2456.00
2018-06-25T06:28:21.066Z,2272.00
2018-06-25T06:29:21.021Z,2076.00
2018-06-25T06:30:20.973Z,2040.00
2018-06-25T06:31:20.948Z,2040.00
2018-06-25T06:32:20.883Z,2116.00
2018-06-25T06:33:20.866Z,2100.00
2018-06-25T06:34:20.786Z,1940.00
2018-06-25T06:35:20.735Z,1748.00
2018-06-25T06:36:20.692Z,1748.00
2018-06-25T06:37:20.648Z,1804.00
2018-06-25T06:38:20.629Z,1916.00
2018-06-25T06:39:20.549Z,1968.00
2018-06-25T06:40:20.509Z,1892.00
2018-06-25T06:41:20.461Z,2008.00
2018-06-25T06:42:20.444Z,2236.00
2018-06-25T06:43:20.366Z,2408.00
2018-06-25T06:44:20.317Z,2468.00
2018-06-25T06:45:20.299Z,2328.00
2018-06-25T06:46:20.237Z,2280.00
2018-06-25T06:47:20.209Z,2192.00
2018-06-25T06:48:20.140Z,2020.00
2018-06-25T06:49:20.084Z,2184.00
2018-06-25T06:50:20.040Z,2228.00
2018-06-25T06:51:19.993Z,2224.00
2018-06-25T06:52:19.989Z,2164.00
2018-06-25T06:53:19.905Z,2096.00
2018-06-25T06:54:19.853Z,1936.00
2018-06-25T06:55:19.804Z,1824.00
2018-06-25T06:56:19.760Z,1756.00
2018-06-25T06:57:19.750Z,1664.00
2018-06-25T06:58:19.672Z,1648.00
2018-06-25T06:59:19.649Z,1720.00
2018-06-25T07:00:19.570Z,1740.00
2018-06-25T07:01:19.524Z,1708.00
2018-06-25T07:02:19.478Z,1696.00
2018-06-25T07:03:19.457Z,1756.00
2018-06-25T07:04:19.383Z,1760.00
2018-06-25T07:05:19.335Z,1812.00
2018-06-25T07:06:19.296Z,2044.00
2018-06-25T07:07:19.245Z,2104.00
2018-06-25T07:08:19.231Z,2280.00
2018-06-25T07:09:19.150Z,2384.00
2018-06-25T07:10:19.167Z,2584.00
2018-06-25T07:11:19.061Z,2804.00
2018-06-25T07:12:19.013Z,2924.00
2018-06-25T07:13:18.992Z,3184.00
2018-06-25T07:14:18.920Z,3304.00
2018-06-25T07:15:18.936Z,3264.00
2018-06-25T07:16:18.831Z,3428.00
2018-06-25T07:17:18.782Z,3608.00
2018-06-25T07:18:18.734Z,3788.00
2018-06-25T07:19:18.687Z,3952.00
2018-06-25T07:20:18.671Z,3812.00
2018-06-25T07:21:18.622Z,3324.00
2018-06-25T07:22:18.551Z,3072.00
2018-06-25T07:23:18.504Z,3216.00
2018-06-25T07:24:18.457Z,3676.00
2018-06-25T07:25:18.445Z,4152.00
2018-06-25T07:26:18.365Z,4452.00
2018-06-25T07:27:18.320Z,4084.00
2018-06-25T07:28:18.273Z,4228.00
2018-06-25T07:29:18.260Z,4240.00
2018-06-25T07:30:18.183Z,4052.00
2018-06-25T07:31:18.137Z,3780.00
2018-06-25T07:32:18.122Z,3672.00
2018-06-25T07:33:18.046Z,3656.00
2018-06-25T07:34:18.000Z,3320.00
2018-06-25T07:35:17.952Z,3020.00
2018-06-25T07:36:17.909Z,2696.00
2018-06-25T07:37:17.895Z,2388.00
2018-06-25T07:38:17.821Z,2044.00
2018-06-25T07:39:17.775Z,1776.00
2018-06-25T07:40:17.726Z,1632.00
2018-06-25T07:41:17.683Z,1580.00
2018-06-25T07:42:17.673Z,1628.00
2018-06-25T07:43:17.592Z,1772.00
2018-06-25T07:44:17.546Z,2012.00
2018-06-25T07:45:17.505Z,2308.00
2018-06-25T07:46:17.456Z,2248.00
2018-06-25T07:47:17.560Z,2168.00
2018-06-25T07:48:17.363Z,2156.00
2018-06-25T07:49:17.320Z,2368.00
2018-06-25T07:50:17.274Z,2684.00
2018-06-25T07:51:17.232Z,3060.00
2018-06-25T07:52:17.222Z,3964.00
2018-06-25T07:53:17.163Z,4388.00
2018-06-25T07:54:17.092Z,4760.00
2018-06-25T07:55:17.044Z,4852.00
2018-06-25T07:56:17.003Z,4828.00
2018-06-25T07:57:16.992Z,4668.00
2018-06-25T07:58:16.905Z,4420.00
2018-06-25T07:59:16.862Z,4080.00
2018-06-25T08:00:16.818Z,3880.00
2018-06-25T08:01:16.771Z,3732.00
2018-06-25T08:02:16.758Z,3564.00
2018-06-25T08:03:16.707Z,3696.00
2018-06-25T08:04:16.636Z,3688.00
2018-06-25T08:05:16.595Z,3432.00
2018-06-25T08:06:16.547Z,3252.00
2018-06-25T08:07:16.513Z,3044.00
2018-06-25T08:08:16.491Z,2984.00
2018-06-25T08:09:16.408Z,3012.00
2018-06-25T08:10:16.389Z,3068.00
2018-06-25T08:11:16.322Z,3148.00
2018-06-25T08:12:16.275Z,3292.00
2018-06-25T08:13:16.270Z,3780.00
2018-06-25T08:14:16.184Z,3312.00
2018-06-25T08:15:16.138Z,3140.00
2018-06-25T08:16:16.132Z,3096.00
2018-06-25T08:17:16.048Z,2948.00
2018-06-25T08:18:16.048Z,2988.00
2018-06-25T08:19:15.965Z,2904.00
2018-06-25T08:20:15.916Z,2984.00
2018-06-25T08:21:15.878Z,2996.00
2018-06-25T08:22:15.826Z,2832.00
2018-06-25T08:23:15.819Z,2576.00
2018-06-25T08:24:15.742Z,2264.00
2018-06-25T08:25:15.689Z,2020.00
2018-06-25T08:26:15.644Z,1896.00
2018-06-25T08:27:15.599Z,1772.00
2018-06-25T08:28:15.590Z,1640.00
2018-06-25T08:29:15.515Z,1516.00
2018-06-25T08:30:15.637Z,1408.00
2018-06-25T08:31:15.418Z,1400.00
2018-06-25T08:32:15.378Z,1380.00
2018-06-25T08:33:15.366Z,1356.00
2018-06-25T08:34:15.417Z,1340.00
2018-06-25T08:35:15.244Z,1364.00
2018-06-25T08:36:15.196Z,1440.00
2018-06-25T08:37:15.167Z,1544.00
2018-06-25T08:38:15.147Z,1748.00
2018-06-25T08:39:15.058Z,1776.00
2018-06-25T08:40:15.036Z,1832.00
2018-06-25T08:41:14.967Z,2016.00
2018-06-25T08:42:14.923Z,2128.00
2018-06-25T08:43:14.907Z,2300.00
2018-06-25T08:44:14.835Z,2540.00
2018-06-25T08:45:14.788Z,2824.00
2018-06-25T08:46:14.789Z,3140.00
2018-06-25T08:47:14.696Z,3520.00
2018-06-25T08:48:14.652Z,3504.00
2018-06-25T08:49:14.611Z,3764.00
2018-06-25T08:50:14.561Z,5040.00
2018-06-25T08:51:14.551Z,5916.00
2018-06-25T08:52:14.510Z,5812.00
2018-06-25T08:53:14.427Z,4956.00
2018-06-25T08:54:14.384Z,5160.00
2018-06-25T08:55:14.337Z,5060.00
2018-06-25T08:56:14.290Z,4924.00
2018-06-25T08:57:14.281Z,4752.00
2018-06-25T08:58:14.208Z,4412.00
2018-06-25T08:59:14.193Z,4040.00
2018-06-25T09:00:14.118Z,3760.00
2018-06-25T09:01:14.071Z,3416.00
2018-06-25T09:02:14.033Z,3144.00
2018-06-25T09:03:13.992Z,2880.00
2018-06-25T09:04:13.969Z,2664.00
2018-06-25T09:05:13.953Z,2460.00
2018-06-25T09:06:13.848Z,2368.00
2018-06-25T09:07:13.834Z,2348.00
2018-06-25T09:08:13.759Z,2272.00
2018-06-25T09:09:13.716Z,2280.00
2018-06-25T09:10:13.671Z,2320.00
2018-06-25T09:11:13.672Z,2376.00
2018-06-25T09:12:13.579Z,2428.00
2018-06-25T09:13:13.541Z,2488.00
2018-06-25T09:14:13.493Z,2688.00
2018-06-25T09:15:13.497Z,2752.00
2018-06-25T09:16:13.437Z,2888.00
2018-06-25T09:17:13.358Z,3108.00
2018-06-25T09:18:13.349Z,3736.00
2018-06-25T09:19:13.288Z,3744.00
2018-06-25T09:20:13.227Z,3896.00
2018-06-25T09:21:13.186Z,3988.00
2018-06-25T09:22:13.183Z,4132.00
2018-06-25T09:23:13.126Z,4312.00
2018-06-25T09:24:13.050Z,4616.00
2018-06-25T09:25:13.005Z,4396.00
2018-06-25T09:26:12.963Z,4844.00
2018-06-25T09:27:12.916Z,4100.00
2018-06-25T09:28:12.904Z,4004.00
2018-06-25T09:29:12.854Z,4004.00
2018-06-25T09:30:12.787Z,4104.00
2018-06-25T09:31:12.757Z,4152.00
2018-06-25T09:32:12.699Z,6208.00
2018-06-25T09:33:12.667Z,6196.00
2018-06-25T09:34:12.630Z,5960.00
2018-06-25T09:35:12.596Z,4608.00
2018-06-25T09:36:12.521Z,4416.00
2018-06-25T09:37:12.480Z,4188.00
2018-06-25T09:38:12.466Z,3976.00
2018-06-25T09:39:12.390Z,3916.00
2018-06-25T09:40:12.348Z,4052.00
2018-06-25T09:41:12.360Z,4052.00
2018-06-25T09:42:12.291Z,3900.00
2018-06-25T09:43:12.215Z,3848.00
2018-06-25T09:44:12.179Z,3720.00
2018-06-25T09:45:12.174Z,3568.00
2018-06-25T09:46:12.088Z,3196.00
2018-06-25T09:47:12.044Z,3244.00
2018-06-25T09:48:12.041Z,3568.00
2018-06-25T09:49:11.962Z,3688.00
2018-06-25T09:50:11.916Z,4452.00
2018-06-25T09:51:11.881Z,3864.00
2018-06-25T09:52:11.833Z,4016.00
2018-06-25T09:53:11.818Z,6256.00
2018-06-25T09:54:11.742Z,6156.00
2018-06-25T09:55:11.772Z,6084.00
2018-06-25T09:56:11.686Z,6016.00
2018-06-25T09:57:11.610Z,5816.00
2018-06-25T09:58:11.573Z,5960.00
2018-06-25T09:59:11.534Z,5960.00
2018-06-25T10:00:11.531Z,5968.00
2018-06-25T10:01:11.494Z,5820.00
2018-06-25T10:02:11.399Z,5764.00
2018-06-25T10:03:11.359Z,5736.00
2018-06-25T10:04:11.312Z,3920.00
2018-06-25T10:05:11.273Z,4696.00
2018-06-25T10:06:11.264Z,3512.00
2018-06-25T10:07:11.192Z,3480.00
2018-06-25T10:08:11.150Z,3532.00
2018-06-25T10:09:11.106Z,3516.00
2018-06-25T10:10:11.096Z,3456.00
2018-06-25T10:11:11.023Z,3504.00
2018-06-25T10:12:10.978Z,3464.00
2018-06-25T10:13:10.974Z,3400.00
2018-06-25T10:14:10.893Z,5444.00
2018-06-25T10:15:10.857Z,4280.00
2018-06-25T10:16:10.843Z,3968.00
2018-06-25T10:17:10.768Z,3288.00
2018-06-25T10:18:10.752Z,3208.00
2018-06-25T10:19:10.699Z,3268.00
2018-06-25T10:20:10.684Z,3504.00
2018-06-25T10:21:10.611Z,3780.00
2018-06-25T10:22:10.560Z,3956.00
2018-06-25T10:23:10.621Z,3952.00
2018-06-25T10:24:10.522Z,4024.00
2018-06-25T10:25:10.433Z,5304.00
2018-06-25T10:26:10.424Z,4248.00
2018-06-25T10:27:10.381Z,4056.00
2018-06-25T10:28:10.349Z,4128.00
2018-06-25T10:29:10.271Z,5800.00
2018-06-25T10:30:10.228Z,4388.00
2018-06-25T10:31:10.206Z,4388.00
2018-06-25T10:32:10.142Z,4356.00
2018-06-25T10:33:10.103Z,4144.00
2018-06-25T10:34:10.062Z,4028.00
2018-06-25T10:35:10.019Z,4132.00
2018-06-25T10:36:10.005Z,3932.00
2018-06-25T10:37:09.935Z,3836.00
2018-06-25T10:38:09.896Z,5864.00
2018-06-25T10:39:09.852Z,6012.00
2018-06-25T10:40:09.815Z,6332.00
2018-06-25T10:41:09.796Z,6464.00
2018-06-25T10:42:09.843Z,6548.00
2018-06-25T10:43:09.683Z,6388.00
2018-06-25T10:44:09.650Z,5948.00
2018-06-25T10:45:09.635Z,5976.00
2018-06-25T10:46:09.565Z,6208.00
2018-06-25T10:47:09.521Z,6096.00
2018-06-25T10:48:09.520Z,6052.00
2018-06-25T10:49:09.441Z,6040.00
2018-06-25T10:50:09.404Z,6056.00
2018-06-25T10:51:09.359Z,6136.00
2018-06-25T10:52:09.330Z,6132.00
2018-06-25T10:53:09.310Z,6128.00
2018-06-25T10:54:09.243Z,5968.00
2018-06-25T10:55:09.195Z,5920.00
2018-06-25T10:56:09.157Z,5984.00
2018-06-25T10:57:09.118Z,6036.00
2018-06-25T10:58:09.175Z,3732.00
2018-06-25T10:59:09.036Z,4912.00
2018-06-25T11:00:09.232Z,4928.00
2018-06-25T11:01:08.967Z,5828.00
2018-06-25T11:02:08.917Z,3472.00
2018-06-25T11:03:08.909Z,3628.00
2018-06-25T11:04:08.837Z,4820.00
2018-06-25T11:05:08.798Z,5084.00
2018-06-25T11:06:08.760Z,4304.00
2018-06-25T11:07:08.827Z,6020.00
2018-06-25T11:08:08.677Z,5984.00
2018-06-25T11:09:08.642Z,5504.00
2018-06-25T11:10:08.632Z,3320.00
2018-06-25T11:11:08.582Z,3160.00
2018-06-25T11:12:08.520Z,3044.00
2018-06-25T11:13:08.555Z,2928.00
2018-06-25T11:14:08.441Z,4292.00
2018-06-25T11:15:08.405Z,3804.00
2018-06-25T11:16:08.389Z,5656.00
2018-06-25T11:17:08.322Z,5652.00
2018-06-25T11:18:08.310Z,5680.00
2018-06-25T11:19:08.246Z,5716.00
2018-06-25T11:20:08.202Z,5636.00
2018-06-25T11:21:08.195Z,5608.00
2018-06-25T11:22:08.121Z,5508.00
2018-06-25T11:23:08.084Z,3376.00
2018-06-25T11:24:08.040Z,3340.00
2018-06-25T11:25:08.004Z,5528.00
2018-06-25T11:26:07.988Z,4688.00
2018-06-25T11:27:08.208Z,5496.00
2018-06-25T11:28:07.913Z,4720.00
2018-06-25T11:29:07.846Z,5168.00
2018-06-25T11:30:07.815Z,5956.00
2018-06-25T11:31:07.768Z,3288.00
2018-06-25T11:32:07.731Z,3364.00
2018-06-25T11:33:07.732Z,5080.00
2018-06-25T11:34:07.651Z,3136.00
2018-06-25T11:35:07.607Z,4860.00
2018-06-25T11:36:07.573Z,3876.00
2018-06-25T11:37:07.531Z,5748.00
2018-06-25T11:38:07.528Z,5768.00
2018-06-25T11:39:07.454Z,5836.00
2018-06-25T11:40:07.419Z,5184.00
2018-06-25T11:41:07.376Z,5728.00
2018-06-25T11:42:07.338Z,5940.00
2018-06-25T11:43:07.336Z,5844.00
2018-06-25T11:44:07.260Z,3588.00
2018-06-25T11:45:07.220Z,4936.00
2018-06-25T11:46:07.176Z,4316.00
2018-06-25T11:47:07.140Z,5272.00
2018-06-25T11:48:07.151Z,5752.00
2018-06-25T11:49:07.065Z,5612.00
2018-06-25T11:50:07.030Z,5612.00
2018-06-25T11:51:06.985Z,5136.00
2018-06-25T11:52:06.950Z,5228.00
2018-06-25T11:53:07.465Z,5236.00
2018-06-25T11:54:06.875Z,4772.00
2018-06-25T11:55:06.845Z,5192.00
2018-06-25T11:56:06.801Z,4164.00
2018-06-25T11:57:06.753Z,5584.00
2018-06-25T11:58:06.753Z,5744.00
2018-06-25T11:59:06.677Z,5416.00
2018-06-25T12:00:06.663Z,4764.00
2018-06-25T12:01:06.599Z,4364.00
2018-06-25T12:02:06.575Z,3348.00
2018-06-25T12:03:06.662Z,3304.00
2018-06-25T12:04:06.479Z,4924.00
2018-06-25T12:05:06.445Z,3672.00
2018-06-25T12:06:06.428Z,3768.00
2018-06-25T12:07:06.362Z,3796.00
2018-06-25T12:08:06.351Z,3884.00
2018-06-25T12:09:06.286Z,3984.00
2018-06-25T12:10:06.251Z,4204.00
2018-06-25T12:11:06.209Z,4552.00
2018-06-25T12:12:06.238Z,4936.00
2018-06-25T12:13:06.169Z,5256.00
2018-06-25T12:14:06.131Z,5664.00
2018-06-25T12:15:06.057Z,4872.00
2018-06-25T12:16:06.013Z,4732.00
2018-06-25T12:17:05.975Z,4668.00
2018-06-25T12:18:05.990Z,4276.00
2018-06-25T12:19:05.940Z,3936.00
2018-06-25T12:20:05.907Z,3852.00
2018-06-25T12:21:05.820Z,3880.00
2018-06-25T12:22:05.785Z,3940.00
2018-06-25T12:23:05.851Z,4056.00
2018-06-25T12:24:05.707Z,4248.00
2018-06-25T12:25:05.666Z,4500.00
2018-06-25T12:26:05.630Z,4524.00
2018-06-25T12:27:05.588Z,4548.00
2018-06-25T12:28:05.599Z,4740.00
2018-06-25T12:29:05.511Z,4772.00